createdAt,value
2022-08-17T00:00:38.036Z,101514.00
2022-08-17T00:03:18.913Z,101508.00
2022-08-17T00:05:57.096Z,101512.00
2022-08-17T00:08:30.851Z,101512.00
2022-08-17T00:11:01.135Z,101515.00
2022-08-17T00:13:35.873Z,101508.00
2022-08-17T00:16:10.250Z,101513.00
2022-08-17T00:18:56.767Z,101512.00
2022-08-17T00:22:28.625Z,101510.00
2022-08-17T00:24:19.925Z,101517.00
2022-08-17T00:26:48.739Z,101510.00
2022-08-17T00:29:20.066Z,101505.00
2022-08-17T00:31:49.586Z,101507.00
2022-08-17T00:34:19.290Z,101519.00
2022-08-17T00:36:48.101Z,101511.00
2022-08-17T00:39:16.767Z,101502.00
2022-08-17T00:41:45.531Z,101514.00
2022-08-17T00:44:15.641Z,101511.00
2022-08-17T00:46:47.920Z,101516.00
2022-08-17T00:49:19.483Z,101515.00
2022-08-17T00:51:54.617Z,101506.00
2022-08-17T00:54:28.945Z,101512.00
2022-08-17T00:57:08.135Z,101508.00
2022-08-17T00:59:42.030Z,101512.00
2022-08-17T01:02:15.344Z,101509.00
2022-08-17T01:04:46.103Z,101507.00
2022-08-17T01:07:17.093Z,101508.00
2022-08-17T01:09:46.196Z,101499.00
2022-08-17T01:12:14.892Z,101502.00
2022-08-17T01:14:44.124Z,101504.00
2022-08-17T01:17:14.599Z,101505.00
2022-08-17T01:19:45.396Z,101496.00
2022-08-17T01:22:24.384Z,101490.00
2022-08-17T01:24:59.888Z,101496.00
2022-08-17T01:27:30.108Z,101491.00
2022-08-17T01:30:03.643Z,101485.00
2022-08-17T01:32:33.432Z,101489.00
2022-08-17T01:35:02.300Z,101486.00
2022-08-17T01:37:37.491Z,101488.00
2022-08-17T01:40:14.724Z,101483.00
2022-08-17T01:42:50.128Z,101491.00
2022-08-17T01:45:24.273Z,101483.00
2022-08-17T01:47:53.817Z,101479.00
2022-08-17T01:50:28.766Z,101486.00
2022-08-17T01:53:04.163Z,101483.00
2022-08-17T01:55:41.382Z,101486.00
2022-08-17T01:58:10.189Z,101480.00
2022-08-17T02:00:47.081Z,101474.00
2022-08-17T02:03:29.956Z,101467.00
2022-08-17T02:05:58.856Z,101470.00
2022-08-17T02:08:38.824Z,101465.00
2022-08-17T02:11:22.492Z,101470.00
2022-08-17T02:13:58.309Z,101468.00
2022-08-17T02:16:37.146Z,101463.00
2022-08-17T02:19:10.687Z,101466.00
2022-08-17T02:21:41.569Z,101476.00
2022-08-17T02:25:01.188Z,101475.00
2022-08-17T02:27:08.194Z,101477.00
2022-08-17T02:29:37.340Z,101469.00
2022-08-17T02:32:07.009Z,101469.00
2022-08-17T02:34:35.712Z,101467.00
2022-08-17T02:37:04.447Z,101469.00
2022-08-17T02:39:34.601Z,101472.00
2022-08-17T02:42:05.070Z,101464.00
2022-08-17T02:44:39.507Z,101465.00
2022-08-17T02:47:10.814Z,101462.00
2022-08-17T02:49:39.533Z,101461.00
2022-08-17T02:52:09.393Z,101459.00
2022-08-17T02:54:42.273Z,101461.00
2022-08-17T02:57:12.246Z,101464.00
2022-08-17T02:59:46.775Z,101465.00
2022-08-17T03:02:18.373Z,101464.00
2022-08-17T03:04:47.030Z,101465.00
2022-08-17T03:07:16.207Z,101458.00
2022-08-17T03:09:46.313Z,101471.00
2022-08-17T03:12:16.305Z,101471.00
2022-08-17T03:14:45.657Z,101465.00
2022-08-17T03:17:17.420Z,101463.00
2022-08-17T03:19:46.551Z,101469.00
2022-08-17T03:22:37.231Z,101460.00
2022-08-17T03:25:10.784Z,101468.00
2022-08-17T03:27:39.930Z,101464.00
2022-08-17T03:30:15.857Z,101458.00
2022-08-17T03:32:48.578Z,101457.00
2022-08-17T03:35:20.992Z,101457.00
2022-08-17T03:37:56.954Z,101460.00
2022-08-17T03:40:43.786Z,101466.00
2022-08-17T03:43:23.269Z,101472.00
2022-08-17T03:46:26.871Z,101468.00
2022-08-17T03:49:16.563Z,101468.00
2022-08-17T03:52:02.782Z,101467.00
2022-08-17T03:54:48.853Z,101475.00
2022-08-17T03:57:19.396Z,101477.00
2022-08-17T03:59:48.805Z,101475.00
2022-08-17T04:02:21.405Z,101477.00
2022-08-17T04:04:51.420Z,101487.00
2022-08-17T04:07:21.156Z,101480.00
2022-08-17T04:09:50.048Z,101485.00
2022-08-17T04:12:23.556Z,101483.00
2022-08-17T04:14:54.760Z,101487.00
2022-08-17T04:17:28.155Z,101491.00
2022-08-17T04:19:57.473Z,101485.00
2022-08-17T04:22:33.179Z,101484.00
2022-08-17T04:25:09.942Z,101480.00
2022-08-17T04:27:41.084Z,101479.00
2022-08-17T04:30:11.833Z,101483.00
2022-08-17T04:33:19.178Z,101483.00
2022-08-17T04:35:47.288Z,101475.00
2022-08-17T04:38:19.691Z,101479.00
2022-08-17T04:41:15.442Z,101474.00
2022-08-17T04:43:48.277Z,101467.00
2022-08-17T04:46:19.791Z,101482.00
2022-08-17T04:48:51.428Z,101485.00
2022-08-17T04:51:25.138Z,101484.00
2022-08-17T04:53:58.130Z,101484.00
2022-08-17T04:56:29.020Z,101477.00
2022-08-17T04:59:02.914Z,101473.00
2022-08-17T05:01:36.287Z,101474.00
2022-08-17T05:04:20.775Z,101488.00
2022-08-17T05:06:57.707Z,101475.00
2022-08-17T05:09:26.396Z,101468.00
2022-08-17T05:11:55.365Z,101476.00
2022-08-17T05:14:33.304Z,101472.00
2022-08-17T05:17:10.667Z,101472.00
2022-08-17T05:19:41.211Z,101471.00
2022-08-17T05:22:10.005Z,101464.00
2022-08-17T05:24:43.694Z,101461.00
2022-08-17T05:27:24.282Z,101455.00
2022-08-17T05:30:01.117Z,101462.00
2022-08-17T05:32:39.285Z,101460.00
2022-08-17T05:35:10.095Z,101460.00
2022-08-17T05:37:39.156Z,101458.00
2022-08-17T05:40:10.109Z,101453.00
2022-08-17T05:42:39.055Z,101454.00
2022-08-17T05:45:11.733Z,101460.00
2022-08-17T05:47:41.650Z,101458.00
2022-08-17T05:50:18.096Z,101461.00
2022-08-17T05:52:59.669Z,101465.00
2022-08-17T05:55:39.922Z,101465.00
2022-08-17T05:58:23.357Z,101463.00
2022-08-17T06:01:19.127Z,101467.00
2022-08-17T06:03:58.328Z,101464.00
2022-08-17T06:06:41.974Z,101466.00
2022-08-17T06:09:40.167Z,101471.00
2022-08-17T06:12:33.711Z,101469.00
2022-08-17T06:15:24.660Z,101475.00
2022-08-17T06:18:01.015Z,101476.00
2022-08-17T06:20:40.194Z,101466.00
2022-08-17T06:23:15.720Z,101469.00
2022-08-17T06:25:50.099Z,101467.00
2022-08-17T06:28:32.293Z,101474.00
2022-08-17T06:31:09.188Z,101477.00
2022-08-17T06:33:41.754Z,101483.00
2022-08-17T06:36:30.304Z,101484.00
2022-08-17T06:39:18.549Z,101481.00
2022-08-17T06:42:02.495Z,101485.00
2022-08-17T06:44:47.609Z,101483.00
2022-08-17T06:47:30.138Z,101485.00
2022-08-17T06:50:14.745Z,101481.00
2022-08-17T06:52:53.766Z,101488.00
2022-08-17T06:55:34.519Z,101488.00
2022-08-17T06:58:16.662Z,101488.00
2022-08-17T07:00:48.954Z,101484.00
2022-08-17T07:03:33.474Z,101491.00
2022-08-17T07:06:09.880Z,101486.00
2022-08-17T07:08:59.097Z,101493.00
2022-08-17T07:11:35.610Z,101491.00
2022-08-17T07:14:22.470Z,101487.00
2022-08-17T07:16:54.796Z,101488.00
2022-08-17T07:19:32.795Z,101490.00
2022-08-17T07:22:20.323Z,101502.00
2022-08-17T07:24:54.842Z,101491.00
2022-08-17T07:27:27.735Z,101488.00
2022-08-17T07:30:10.610Z,101497.00
2022-08-17T07:32:45.293Z,101496.00
2022-08-17T07:35:21.223Z,101500.00
2022-08-17T07:38:25.770Z,101499.00
2022-08-17T07:41:06.347Z,101498.00
2022-08-17T07:43:46.295Z,101498.00
2022-08-17T07:46:37.491Z,101507.00
2022-08-17T07:49:35.080Z,101494.00
2022-08-17T07:52:48.211Z,101499.00
2022-08-17T07:55:02.298Z,101503.00
2022-08-17T07:57:37.111Z,101492.00
2022-08-17T08:00:31.488Z,101500.00
2022-08-17T08:03:13.346Z,101503.00
2022-08-17T08:05:56.223Z,101508.00
2022-08-17T08:08:31.317Z,101498.00
2022-08-17T08:11:08.610Z,101506.00
2022-08-17T08:13:45.166Z,101494.00
2022-08-17T08:16:24.899Z,101505.00
2022-08-17T08:18:58.369Z,101494.00
2022-08-17T08:21:49.432Z,101500.00
2022-08-17T08:24:56.527Z,101510.00
2022-08-17T08:27:45.552Z,101498.00
2022-08-17T08:30:19.338Z,101501.00
2022-08-17T08:33:17.332Z,101516.00
2022-08-17T08:35:55.705Z,101512.00
2022-08-17T08:38:44.241Z,101504.00
2022-08-17T08:41:38.575Z,101501.00
2022-08-17T08:45:00.295Z,101498.00
2022-08-17T08:47:40.387Z,101506.00
2022-08-17T08:50:30.195Z,101499.00
2022-08-17T08:53:25.162Z,101500.00
2022-08-17T08:56:01.347Z,101500.00
2022-08-17T08:58:43.896Z,101499.00
2022-08-17T09:01:26.920Z,101502.00
2022-08-17T09:04:26.938Z,101490.00
2022-08-17T09:07:11.310Z,101494.00
2022-08-17T09:09:58.703Z,101498.00
2022-08-17T09:12:42.869Z,101493.00
2022-08-17T09:15:18.912Z,101494.00
2022-08-17T09:18:21.425Z,101493.00
2022-08-17T09:20:55.293Z,101491.00
2022-08-17T09:23:38.453Z,101494.00
2022-08-17T09:26:21.157Z,101494.00
2022-08-17T09:28:55.290Z,101497.00
2022-08-17T09:31:46.486Z,101497.00
2022-08-17T09:34:31.954Z,101495.00
2022-08-17T09:37:17.069Z,101494.00
2022-08-17T09:39:56.850Z,101500.00
2022-08-17T09:42:32.506Z,101497.00
2022-08-17T09:45:25.032Z,101506.00
2022-08-17T09:48:03.243Z,101497.00
2022-08-17T09:51:03.709Z,101497.00
2022-08-17T09:53:33.650Z,101499.00
2022-08-17T09:56:19.412Z,101489.00
2022-08-17T09:59:38.676Z,101490.00
2022-08-17T10:02:44.217Z,101483.00
2022-08-17T10:05:22.066Z,101481.00
2022-08-17T10:08:02.241Z,101482.00
2022-08-17T10:10:41.880Z,101482.00
2022-08-17T10:13:27.212Z,101480.00
2022-08-17T10:16:09.038Z,101477.00
2022-08-17T10:18:57.458Z,101482.00
2022-08-17T10:21:45.476Z,101478.00
2022-08-17T10:24:38.671Z,101485.00
2022-08-17T10:27:15.976Z,101480.00
2022-08-17T10:29:50.784Z,101477.00
2022-08-17T10:32:32.814Z,101480.00
2022-08-17T10:35:34.025Z,101477.00
2022-08-17T10:38:32.817Z,101472.00
2022-08-17T10:41:25.289Z,101472.00
2022-08-17T10:44:38.860Z,101470.00
2022-08-17T10:47:08.260Z,101472.00
2022-08-17T10:49:39.382Z,101475.00
2022-08-17T10:52:48.901Z,101470.00
2022-08-17T10:55:20.912Z,101469.00
2022-08-17T10:57:55.007Z,101479.00
2022-08-17T11:01:04.184Z,101467.00
2022-08-17T11:03:33.374Z,101475.00
2022-08-17T11:06:19.291Z,101472.00
2022-08-17T11:09:20.742Z,101459.00
2022-08-17T11:12:33.074Z,101467.00
2022-08-17T11:15:23.318Z,101476.00
2022-08-17T11:18:24.818Z,101473.00
2022-08-17T11:21:15.978Z,101472.00
2022-08-17T11:24:10.487Z,101478.00
2022-08-17T11:26:46.842Z,101470.00
2022-08-17T11:29:24.647Z,101479.00
2022-08-17T11:32:11.111Z,101469.00
2022-08-17T11:34:43.620Z,101466.00
2022-08-17T11:37:48.433Z,101468.00
2022-08-17T11:41:10.815Z,101465.00
2022-08-17T11:44:04.655Z,101472.00
2022-08-17T11:47:18.549Z,101467.00
2022-08-17T11:50:28.663Z,101467.00
2022-08-17T11:52:57.897Z,101462.00
2022-08-17T11:56:08.310Z,101469.00
2022-08-17T11:58:41.899Z,101465.00
2022-08-17T12:01:16.219Z,101466.00
2022-08-17T12:03:57.937Z,101461.00
2022-08-17T12:06:51.467Z,101466.00
2022-08-17T12:09:25.156Z,101461.00
2022-08-17T12:12:12.445Z,101459.00
2022-08-17T12:17:42.700Z,101456.00
2022-08-17T12:20:24.174Z,101458.00
2022-08-17T12:23:05.124Z,101450.00
2022-08-17T12:25:49.452Z,101456.00
2022-08-17T12:28:28.973Z,101459.00
2022-08-17T12:31:09.054Z,101458.00
2022-08-17T12:33:45.473Z,101459.00
2022-08-17T12:36:19.733Z,101461.00
2022-08-17T12:39:13.999Z,101456.00
2022-08-17T12:41:48.199Z,101456.00
2022-08-17T12:44:23.444Z,101453.00
2022-08-17T12:47:02.273Z,101460.00
2022-08-17T12:49:35.693Z,101451.00
2022-08-17T12:52:16.843Z,101450.00
2022-08-17T12:55:00.967Z,101447.00
2022-08-17T12:57:35.657Z,101447.00
2022-08-17T13:00:17.834Z,101441.00
2022-08-17T13:02:50.600Z,101443.00
2022-08-17T13:05:27.869Z,101440.00
2022-08-17T13:07:59.818Z,101435.00
2022-08-17T13:10:35.577Z,101444.00
2022-08-17T13:13:18.025Z,101439.00
2022-08-17T13:15:57.204Z,101438.00
2022-08-17T13:18:49.257Z,101435.00
2022-08-17T13:21:28.172Z,101426.00
2022-08-17T13:24:00.820Z,101434.00
2022-08-17T13:26:38.333Z,101432.00
2022-08-17T13:29:18.768Z,101432.00
2022-08-17T13:31:51.868Z,101432.00
2022-08-17T13:35:11.768Z,101440.00
2022-08-17T13:37:34.409Z,101443.00
2022-08-17T13:40:30.503Z,101438.00
2022-08-17T13:43:03.581Z,101435.00
2022-08-17T13:45:50.388Z,101442.00
2022-08-17T13:48:32.364Z,101441.00
2022-08-17T13:51:26.711Z,101442.00
2022-08-17T13:54:19.142Z,101446.00
2022-08-17T13:57:01.718Z,101448.00
2022-08-17T13:59:53.533Z,101444.00
2022-08-17T14:02:28.833Z,101446.00
2022-08-17T14:05:00.700Z,101443.00
2022-08-17T14:07:37.519Z,101450.00
2022-08-17T14:10:14.803Z,101446.00
2022-08-17T14:12:46.485Z,101437.00
2022-08-17T14:15:20.563Z,101441.00
2022-08-17T14:17:50.506Z,101445.00
2022-08-17T14:20:24.715Z,101440.00
2022-08-17T14:22:56.757Z,101440.00
2022-08-17T14:25:29.514Z,101434.00
2022-08-17T14:27:59.430Z,101432.00
2022-08-17T14:30:30.987Z,101437.00
2022-08-17T14:33:02.350Z,101429.00
2022-08-17T14:35:31.685Z,101436.00
2022-08-17T14:38:02.343Z,101433.00
2022-08-17T14:40:31.641Z,101431.00
2022-08-17T14:43:01.551Z,101433.00
2022-08-17T14:45:33.479Z,101431.00
2022-08-17T14:48:07.969Z,101426.00
2022-08-17T14:50:40.351Z,101428.00
2022-08-17T14:53:16.318Z,101422.00
2022-08-17T14:55:47.231Z,101421.00
2022-08-17T14:58:18.143Z,101424.00
2022-08-17T15:00:51.188Z,101424.00
2022-08-17T15:03:20.576Z,101415.00
2022-08-17T15:05:49.674Z,101414.00
2022-08-17T15:08:19.756Z,101418.00
2022-08-17T15:10:54.204Z,101417.00
2022-08-17T15:13:27.595Z,101413.00
2022-08-17T15:16:00.020Z,101412.00
2022-08-17T15:18:29.056Z,101412.00
2022-08-17T15:21:00.965Z,101419.00
2022-08-17T15:23:30.164Z,101412.00
2022-08-17T15:25:59.334Z,101411.00
2022-08-17T15:28:28.283Z,101414.00
2022-08-17T15:30:59.260Z,101417.00
2022-08-17T15:33:30.545Z,101412.00
2022-08-17T15:36:02.404Z,101417.00
2022-08-17T15:38:34.098Z,101413.00
2022-08-17T15:41:04.301Z,101407.00
2022-08-17T15:43:34.084Z,101403.00
2022-08-17T15:46:10.775Z,101400.00
2022-08-17T15:48:44.008Z,101403.00
2022-08-17T15:51:17.491Z,101401.00
2022-08-17T15:53:54.920Z,101410.00
2022-08-17T15:56:25.509Z,101402.00
2022-08-17T15:58:55.487Z,101404.00
2022-08-17T16:02:20.011Z,101406.00
2022-08-17T16:04:29.673Z,101403.00
2022-08-17T16:07:01.215Z,101402.00
2022-08-17T16:09:30.337Z,101408.00
2022-08-17T16:12:09.094Z,101402.00
2022-08-17T16:14:38.364Z,101407.00
2022-08-17T16:17:38.594Z,101399.00
2022-08-17T16:19:59.704Z,101398.00
2022-08-17T16:22:35.140Z,101403.00
2022-08-17T16:25:07.899Z,101402.00
2022-08-17T16:27:37.607Z,101399.00
2022-08-17T16:30:12.518Z,101401.00
2022-08-17T16:32:48.511Z,101407.00
2022-08-17T16:35:22.317Z,101401.00
2022-08-17T16:37:53.072Z,101404.00
2022-08-17T16:40:33.111Z,101403.00
2022-08-17T16:43:07.322Z,101403.00
2022-08-17T16:45:41.015Z,101402.00
2022-08-17T16:48:15.856Z,101402.00
2022-08-17T16:51:03.207Z,101409.00
2022-08-17T16:53:34.207Z,101407.00
2022-08-17T16:56:05.396Z,101410.00
2022-08-17T16:58:34.875Z,101402.00
2022-08-17T17:01:04.082Z,101406.00
2022-08-17T17:03:36.190Z,101408.00
2022-08-17T17:06:15.826Z,101410.00
2022-08-17T17:08:57.128Z,101408.00
2022-08-17T17:11:34.505Z,101407.00
2022-08-17T17:14:08.518Z,101407.00
2022-08-17T17:16:46.729Z,101409.00
2022-08-17T17:19:34.557Z,101411.00
2022-08-17T17:22:26.056Z,101417.00
2022-08-17T17:25:18.429Z,101422.00
2022-08-17T17:28:04.902Z,101419.00
2022-08-17T17:30:50.068Z,101419.00
2022-08-17T17:33:24.688Z,101418.00
2022-08-17T17:36:00.552Z,101421.00
2022-08-17T17:38:35.757Z,101426.00
2022-08-17T17:41:12.713Z,101424.00
2022-08-17T17:43:49.518Z,101418.00
2022-08-17T17:46:29.071Z,101425.00
2022-08-17T17:49:02.898Z,101429.00
2022-08-17T17:52:09.361Z,101431.00
2022-08-17T17:55:04.447Z,101436.00
2022-08-17T17:57:51.058Z,101437.00
2022-08-17T18:00:25.263Z,101435.00
2022-08-17T18:03:15.433Z,101430.00
2022-08-17T18:06:14.910Z,101426.00
2022-08-17T18:09:04.302Z,101436.00
2022-08-17T18:12:11.501Z,101436.00
2022-08-17T18:15:02.366Z,101436.00
2022-08-17T18:17:36.545Z,101430.00
2022-08-17T18:20:07.763Z,101435.00
2022-08-17T18:22:37.201Z,101434.00
2022-08-17T18:25:47.611Z,101425.00
2022-08-17T18:28:27.946Z,101430.00
2022-08-17T18:31:14.288Z,101431.00
2022-08-17T18:33:47.150Z,101428.00
2022-08-17T18:36:31.283Z,101432.00
2022-08-17T18:39:16.473Z,101425.00
2022-08-17T18:41:51.112Z,101427.00
2022-08-17T18:44:29.276Z,101433.00
2022-08-17T18:47:15.037Z,101442.00
2022-08-17T18:49:47.601Z,101447.00
2022-08-17T18:52:23.708Z,101450.00
2022-08-17T18:55:09.992Z,101445.00
2022-08-17T18:57:44.888Z,101442.00
2022-08-17T19:00:18.606Z,101439.00
2022-08-17T19:02:56.426Z,101444.00
2022-08-17T19:05:36.485Z,101441.00
2022-08-17T19:08:25.107Z,101437.00
2022-08-17T19:10:59.957Z,101431.00
2022-08-17T19:13:38.319Z,101432.00
2022-08-17T19:16:15.766Z,101433.00
2022-08-17T19:18:52.504Z,101432.00
2022-08-17T19:21:28.662Z,101424.00
2022-08-17T19:24:07.262Z,101428.00
2022-08-17T19:26:54.225Z,101433.00
2022-08-17T19:29:34.382Z,101440.00
2022-08-17T19:32:05.700Z,101433.00
2022-08-17T19:34:38.215Z,101437.00
2022-08-17T19:37:21.754Z,101436.00
2022-08-17T19:40:08.592Z,101418.00
2022-08-17T19:42:57.164Z,101426.00
2022-08-17T19:45:45.369Z,101432.00
2022-08-17T19:48:31.006Z,101434.00
2022-08-17T19:51:09.259Z,101434.00
2022-08-17T19:54:04.913Z,101435.00
2022-08-17T19:56:49.028Z,101438.00
2022-08-17T19:59:36.022Z,101444.00
2022-08-17T20:02:32.649Z,101439.00
2022-08-17T20:05:07.552Z,101432.00
2022-08-17T20:07:55.429Z,101433.00
2022-08-17T20:10:48.143Z,101438.00
2022-08-17T20:13:33.673Z,101428.00
2022-08-17T20:16:03.953Z,101426.00
2022-08-17T20:18:44.392Z,101431.00
2022-08-17T20:21:23.414Z,101423.00
2022-08-17T20:24:00.999Z,101427.00
2022-08-17T20:26:58.361Z,101436.00
2022-08-17T20:29:39.677Z,101446.00
2022-08-17T20:32:29.441Z,101447.00
2022-08-17T20:35:24.733Z,101448.00
2022-08-17T20:37:59.296Z,101445.00
2022-08-17T20:40:37.067Z,101446.00
2022-08-17T20:43:49.194Z,101449.00
2022-08-17T20:46:35.646Z,101453.00
2022-08-17T20:49:24.104Z,101450.00
2022-08-17T20:52:03.478Z,101453.00
2022-08-17T20:54:49.156Z,101453.00
2022-08-17T20:57:49.231Z,101454.00
2022-08-17T21:00:47.383Z,101452.00
2022-08-17T21:03:51.825Z,101446.00
2022-08-17T21:06:25.468Z,101442.00
2022-08-17T21:09:00.325Z,101441.00
2022-08-17T21:12:04.410Z,101442.00
2022-08-17T21:15:02.604Z,101446.00
2022-08-17T21:17:51.467Z,101450.00
2022-08-17T21:20:32.814Z,101452.00
2022-08-17T21:23:34.869Z,101459.00
2022-08-17T21:26:29.620Z,101455.00
2022-08-17T21:29:32.532Z,101454.00
2022-08-17T21:32:24.326Z,101453.00
2022-08-17T21:35:30.571Z,101452.00
2022-08-17T21:38:05.390Z,101453.00
2022-08-17T21:40:36.236Z,101459.00
2022-08-17T21:43:24.548Z,101448.00
2022-08-17T21:46:05.082Z,101453.00
2022-08-17T21:48:44.357Z,101455.00
2022-08-17T21:51:19.483Z,101460.00
2022-08-17T21:53:52.846Z,101458.00
2022-08-17T21:56:27.422Z,101459.00
2022-08-17T21:59:03.584Z,101454.00
2022-08-17T22:01:36.049Z,101447.00
2022-08-17T22:04:18.026Z,101441.00
2022-08-17T22:06:56.508Z,101445.00
2022-08-17T22:09:29.422Z,101448.00
2022-08-17T22:12:07.329Z,101448.00
2022-08-17T22:14:52.466Z,101442.00
2022-08-17T22:17:27.351Z,101453.00
2022-08-17T22:20:01.491Z,101445.00
2022-08-17T22:23:00.002Z,101449.00
2022-08-17T22:25:29.683Z,101451.00
2022-08-17T22:28:01.786Z,101446.00
2022-08-17T22:31:04.448Z,101454.00
2022-08-17T22:34:08.692Z,101446.00
2022-08-17T22:36:38.894Z,101440.00
2022-08-17T22:39:40.995Z,101443.00
2022-08-17T22:42:16.130Z,101449.00
2022-08-17T22:44:51.384Z,101443.00
2022-08-17T22:47:38.922Z,101454.00
2022-08-17T22:50:16.375Z,101441.00
2022-08-17T22:53:00.350Z,101447.00
2022-08-17T22:55:49.432Z,101445.00
2022-08-17T22:58:41.081Z,101441.00
2022-08-17T23:01:29.459Z,101445.00
2022-08-17T23:04:05.865Z,101439.00
2022-08-17T23:06:37.418Z,101438.00
2022-08-17T23:09:08.353Z,101435.00
2022-08-17T23:11:50.357Z,101440.00
2022-08-17T23:14:22.556Z,101444.00
2022-08-17T23:16:51.681Z,101436.00
2022-08-17T23:19:23.078Z,101439.00
2022-08-17T23:21:54.351Z,101442.00
2022-08-17T23:24:27.018Z,101439.00
2022-08-17T23:26:57.441Z,101442.00
2022-08-17T23:29:29.545Z,101445.00
2022-08-17T23:32:01.482Z,101447.00
2022-08-17T23:34:32.349Z,101451.00
2022-08-17T23:37:02.321Z,101449.00
2022-08-17T23:39:31.666Z,101451.00
2022-08-17T23:42:05.202Z,101443.00
2022-08-17T23:44:34.046Z,101445.00
2022-08-17T23:47:04.756Z,101447.00
2022-08-17T23:49:36.220Z,101449.00
2022-08-17T23:52:12.634Z,101452.00
2022-08-17T23:54:47.988Z,101443.00
2022-08-17T23:57:20.637Z,101448.00
